sensor_id;sensor_type;location;lat;lon;timestamp;P1;durP1;ratioP1;P2;durP2;ratioP2
50126;SDS011;36024;47.974;16.398;2022-12-18T00:01:12;12.23;;;8.67;;
50126;SDS011;36024;47.974;16.398;2022-12-18T00:03:41;12.00;;;8.30;;
50126;SDS011;36024;47.974;16.398;2022-12-18T00:06:09;12.23;;;8.70;;
50126;SDS011;36024;47.974;16.398;2022-12-18T00:08:36;11.73;;;7.97;;
50126;SDS011;36024;47.974;16.398;2022-12-18T00:11:06;13.57;;;8.80;;
50126;SDS011;36024;47.974;16.398;2022-12-18T00:13:34;12.20;;;8.60;;
50126;SDS011;36024;47.974;16.398;2022-12-18T00:16:02;12.27;;;8.93;;
50126;SDS011;36024;47.974;16.398;2022-12-18T00:18:30;11.40;;;8.80;;
50126;SDS011;36024;47.974;16.398;2022-12-18T00:20:58;11.77;;;8.73;;
50126;SDS011;36024;47.974;16.398;2022-12-18T00:23:27;13.23;;;8.70;;
50126;SDS011;36024;47.974;16.398;2022-12-18T00:25:54;12.90;;;9.00;;
50126;SDS011;36024;47.974;16.398;2022-12-18T00:28:21;13.20;;;8.47;;
50126;SDS011;36024;47.974;16.398;2022-12-18T00:30:47;12.47;;;8.80;;
50126;SDS011;36024;47.974;16.398;2022-12-18T00:33:17;14.03;;;9.07;;
50126;SDS011;36024;47.974;16.398;2022-12-18T00:35:44;12.40;;;9.00;;
50126;SDS011;36024;47.974;16.398;2022-12-18T00:38:10;12.50;;;9.20;;
50126;SDS011;36024;47.974;16.398;2022-12-18T00:40:37;15.50;;;9.47;;
50126;SDS011;36024;47.974;16.398;2022-12-18T00:43:03;12.70;;;9.20;;
50126;SDS011;36024;47.974;16.398;2022-12-18T00:45:30;15.93;;;10.30;;
50126;SDS011;36024;47.974;16.398;2022-12-18T00:47:57;17.17;;;10.80;;
50126;SDS011;36024;47.974;16.398;2022-12-18T00:50:24;14.30;;;10.23;;
50126;SDS011;36024;47.974;16.398;2022-12-18T00:52:51;18.93;;;11.23;;
50126;SDS011;36024;47.974;16.398;2022-12-18T00:55:18;17.10;;;11.93;;
50126;SDS011;36024;47.974;16.398;2022-12-18T00:57:45;17.43;;;11.87;;
50126;SDS011;36024;47.974;16.398;2022-12-18T01:00:13;28.83;;;17.97;;
50126;SDS011;36024;47.974;16.398;2022-12-18T01:02:41;21.20;;;14.00;;
50126;SDS011;36024;47.974;16.398;2022-12-18T01:05:09;19.10;;;13.00;;
50126;SDS011;36024;47.974;16.398;2022-12-18T01:07:36;19.87;;;13.33;;
50126;SDS011;36024;47.974;16.398;2022-12-18T01:10:03;20.30;;;13.53;;
50126;SDS011;36024;47.974;16.398;2022-12-18T01:12:33;21.07;;;13.50;;
50126;SDS011;36024;47.974;16.398;2022-12-18T01:15:01;21.77;;;14.20;;
50126;SDS011;36024;47.974;16.398;2022-12-18T01:17:29;18.67;;;13.83;;
50126;SDS011;36024;47.974;16.398;2022-12-18T01:19:56;20.47;;;13.83;;
50126;SDS011;36024;47.974;16.398;2022-12-18T01:22:23;20.67;;;14.40;;
50126;SDS011;36024;47.974;16.398;2022-12-18T01:24:49;20.47;;;14.20;;
50126;SDS011;36024;47.974;16.398;2022-12-18T01:27:16;19.90;;;13.00;;
50126;SDS011;36024;47.974;16.398;2022-12-18T01:29:43;20.00;;;12.80;;
50126;SDS011;36024;47.974;16.398;2022-12-18T01:32:09;17.13;;;11.90;;
50126;SDS011;36024;47.974;16.398;2022-12-18T01:34:36;15.10;;;10.47;;
50126;SDS011;36024;47.974;16.398;2022-12-18T01:37:03;16.43;;;10.47;;
50126;SDS011;36024;47.974;16.398;2022-12-18T01:39:31;13.77;;;9.67;;
50126;SDS011;36024;47.974;16.398;2022-12-18T01:42:02;13.87;;;9.03;;
50126;SDS011;36024;47.974;16.398;2022-12-18T01:44:56;13.70;;;9.23;;
50126;SDS011;36024;47.974;16.398;2022-12-18T01:47:56;11.80;;;8.13;;
50126;SDS011;36024;47.974;16.398;2022-12-18T01:50:31;10.93;;;7.73;;
50126;SDS011;36024;47.974;16.398;2022-12-18T01:53:19;12.10;;;8.33;;
50126;SDS011;36024;47.974;16.398;2022-12-18T01:55:55;11.60;;;7.73;;
50126;SDS011;36024;47.974;16.398;2022-12-18T01:58:24;10.07;;;7.13;;
50126;SDS011;36024;47.974;16.398;2022-12-18T02:00:58;10.97;;;7.50;;
50126;SDS011;36024;47.974;16.398;2022-12-18T02:03:25;10.53;;;8.17;;
50126;SDS011;36024;47.974;16.398;2022-12-18T02:06:15;12.47;;;7.80;;
50126;SDS011;36024;47.974;16.398;2022-12-18T02:09:11;11.33;;;8.03;;
50126;SDS011;36024;47.974;16.398;2022-12-18T02:14:17;10.90;;;7.83;;
50126;SDS011;36024;47.974;16.398;2022-12-18T02:16:57;12.37;;;8.33;;
50126;SDS011;36024;47.974;16.398;2022-12-18T02:22:13;11.40;;;8.47;;
50126;SDS011;36024;47.974;16.398;2022-12-18T02:24:59;12.87;;;8.73;;
50126;SDS011;36024;47.974;16.398;2022-12-18T02:27:40;13.43;;;8.83;;
50126;SDS011;36024;47.974;16.398;2022-12-18T02:30:08;13.33;;;9.00;;
50126;SDS011;36024;47.974;16.398;2022-12-18T02:32:40;12.63;;;9.23;;
50126;SDS011;36024;47.974;16.398;2022-12-18T02:35:14;13.30;;;9.10;;
50126;SDS011;36024;47.974;16.398;2022-12-18T02:37:45;12.10;;;9.07;;
50126;SDS011;36024;47.974;16.398;2022-12-18T02:40:14;13.47;;;9.20;;
50126;SDS011;36024;47.974;16.398;2022-12-18T02:42:41;14.87;;;8.90;;
50126;SDS011;36024;47.974;16.398;2022-12-18T02:45:09;13.87;;;9.13;;
50126;SDS011;36024;47.974;16.398;2022-12-18T02:47:37;13.33;;;8.97;;
50126;SDS011;36024;47.974;16.398;2022-12-18T03:02:48;14.83;;;9.20;;
50126;SDS011;36024;47.974;16.398;2022-12-18T03:05:12;13.07;;;9.50;;
50126;SDS011;36024;47.974;16.398;2022-12-18T03:07:49;15.53;;;10.20;;
50126;SDS011;36024;47.974;16.398;2022-12-18T03:10:21;17.07;;;11.53;;
50126;SDS011;36024;47.974;16.398;2022-12-18T03:12:52;26.60;;;15.77;;
50126;SDS011;36024;47.974;16.398;2022-12-18T03:15:24;31.20;;;17.67;;
50126;SDS011;36024;47.974;16.398;2022-12-18T03:18:03;27.30;;;15.13;;
50126;SDS011;36024;47.974;16.398;2022-12-18T03:20:32;20.73;;;13.43;;
50126;SDS011;36024;47.974;16.398;2022-12-18T03:23:10;17.63;;;11.43;;
50126;SDS011;36024;47.974;16.398;2022-12-18T03:25:46;16.43;;;10.67;;
50126;SDS011;36024;47.974;16.398;2022-12-18T03:28:16;15.87;;;10.97;;
50126;SDS011;36024;47.974;16.398;2022-12-18T03:30:51;15.23;;;9.63;;
50126;SDS011;36024;47.974;16.398;2022-12-18T03:33:25;14.43;;;10.20;;
50126;SDS011;36024;47.974;16.398;2022-12-18T03:35:56;16.70;;;11.70;;
50126;SDS011;36024;47.974;16.398;2022-12-18T03:38:23;17.83;;;11.13;;
50126;SDS011;36024;47.974;16.398;2022-12-18T03:43:30;15.77;;;10.97;;
50126;SDS011;36024;47.974;16.398;2022-12-18T03:46:17;15.20;;;10.70;;
50126;SDS011;36024;47.974;16.398;2022-12-18T03:48:52;15.47;;;10.43;;
50126;SDS011;36024;47.974;16.398;2022-12-18T03:51:42;15.53;;;11.13;;
50126;SDS011;36024;47.974;16.398;2022-12-18T03:54:16;16.30;;;11.00;;
50126;SDS011;36024;47.974;16.398;2022-12-18T03:56:57;12.60;;;9.47;;
50126;SDS011;36024;47.974;16.398;2022-12-18T03:59:27;14.00;;;9.83;;
50126;SDS011;36024;47.974;16.398;2022-12-18T04:01:55;13.43;;;9.90;;
50126;SDS011;36024;47.974;16.398;2022-12-18T04:04:25;15.30;;;9.57;;
50126;SDS011;36024;47.974;16.398;2022-12-18T04:06:53;16.00;;;10.47;;
50126;SDS011;36024;47.974;16.398;2022-12-18T04:09:21;14.13;;;9.40;;
50126;SDS011;36024;47.974;16.398;2022-12-18T04:11:49;15.07;;;10.40;;
50126;SDS011;36024;47.974;16.398;2022-12-18T04:14:17;14.17;;;9.23;;
50126;SDS011;36024;47.974;16.398;2022-12-18T04:16:48;14.30;;;9.87;;
50126;SDS011;36024;47.974;16.398;2022-12-18T04:19:17;13.33;;;9.03;;
50126;SDS011;36024;47.974;16.398;2022-12-18T04:21:46;14.07;;;9.90;;
50126;SDS011;36024;47.974;16.398;2022-12-18T04:24:13;13.83;;;9.77;;
50126;SDS011;36024;47.974;16.398;2022-12-18T04:26:48;13.50;;;10.00;;
50126;SDS011;36024;47.974;16.398;2022-12-18T04:29:17;12.77;;;9.33;;
50126;SDS011;36024;47.974;16.398;2022-12-18T04:31:44;13.27;;;9.27;;
50126;SDS011;36024;47.974;16.398;2022-12-18T04:34:10;16.77;;;13.00;;
50126;SDS011;36024;47.974;16.398;2022-12-18T04:36:43;17.70;;;14.93;;
50126;SDS011;36024;47.974;16.398;2022-12-18T04:39:09;16.43;;;11.67;;
50126;SDS011;36024;47.974;16.398;2022-12-18T04:41:36;18.90;;;13.27;;
50126;SDS011;36024;47.974;16.398;2022-12-18T04:44:04;20.07;;;13.40;;
50126;SDS011;36024;47.974;16.398;2022-12-18T04:46:30;17.77;;;12.57;;
50126;SDS011;36024;47.974;16.398;2022-12-18T04:48:57;19.30;;;12.93;;
50126;SDS011;36024;47.974;16.398;2022-12-18T04:51:24;21.07;;;13.20;;
50126;SDS011;36024;47.974;16.398;2022-12-18T04:53:52;18.57;;;12.50;;
50126;SDS011;36024;47.974;16.398;2022-12-18T04:56:19;17.73;;;12.13;;
50126;SDS011;36024;47.974;16.398;2022-12-18T04:58:46;17.80;;;12.07;;
50126;SDS011;36024;47.974;16.398;2022-12-18T05:01:13;15.67;;;11.40;;
50126;SDS011;36024;47.974;16.398;2022-12-18T05:03:41;17.17;;;11.33;;
50126;SDS011;36024;47.974;16.398;2022-12-18T05:06:09;19.77;;;11.20;;
50126;SDS011;36024;47.974;16.398;2022-12-18T05:08:36;17.30;;;11.40;;
50126;SDS011;36024;47.974;16.398;2022-12-18T05:11:04;17.23;;;10.93;;
50126;SDS011;36024;47.974;16.398;2022-12-18T05:13:32;16.57;;;11.03;;
50126;SDS011;36024;47.974;16.398;2022-12-18T05:15:59;16.77;;;10.63;;
50126;SDS011;36024;47.974;16.398;2022-12-18T05:18:26;15.10;;;10.63;;
50126;SDS011;36024;47.974;16.398;2022-12-18T05:20:53;16.50;;;10.63;;
50126;SDS011;36024;47.974;16.398;2022-12-18T05:23:20;18.50;;;11.10;;
50126;SDS011;36024;47.974;16.398;2022-12-18T05:25:51;17.10;;;11.40;;
50126;SDS011;36024;47.974;16.398;2022-12-18T05:28:22;16.77;;;10.93;;
50126;SDS011;36024;47.974;16.398;2022-12-18T05:30:49;15.83;;;10.70;;
50126;SDS011;36024;47.974;16.398;2022-12-18T05:33:21;17.47;;;10.90;;
50126;SDS011;36024;47.974;16.398;2022-12-18T05:35:52;18.13;;;11.40;;
50126;SDS011;36024;47.974;16.398;2022-12-18T05:38:20;16.00;;;10.63;;
50126;SDS011;36024;47.974;16.398;2022-12-18T05:40:48;16.30;;;11.10;;
50126;SDS011;36024;47.974;16.398;2022-12-18T05:43:15;16.67;;;10.73;;
50126;SDS011;36024;47.974;16.398;2022-12-18T05:45:47;16.60;;;10.63;;
50126;SDS011;36024;47.974;16.398;2022-12-18T05:48:14;17.07;;;11.10;;
50126;SDS011;36024;47.974;16.398;2022-12-18T05:50:42;17.43;;;11.27;;
50126;SDS011;36024;47.974;16.398;2022-12-18T05:53:10;16.67;;;11.30;;
50126;SDS011;36024;47.974;16.398;2022-12-18T05:55:37;20.47;;;13.33;;
50126;SDS011;36024;47.974;16.398;2022-12-18T05:58:06;17.43;;;11.60;;
50126;SDS011;36024;47.974;16.398;2022-12-18T06:00:34;22.50;;;12.70;;
50126;SDS011;36024;47.974;16.398;2022-12-18T06:03:02;17.27;;;11.73;;
50126;SDS011;36024;47.974;16.398;2022-12-18T06:05:29;17.43;;;11.77;;
50126;SDS011;36024;47.974;16.398;2022-12-18T06:07:55;16.30;;;11.43;;
50126;SDS011;36024;47.974;16.398;2022-12-18T06:10:22;18.93;;;12.33;;
50126;SDS011;36024;47.974;16.398;2022-12-18T06:12:48;20.70;;;12.20;;
50126;SDS011;36024;47.974;16.398;2022-12-18T06:15:15;18.17;;;12.23;;
50126;SDS011;36024;47.974;16.398;2022-12-18T06:17:42;17.63;;;11.93;;
50126;SDS011;36024;47.974;16.398;2022-12-18T06:20:09;17.27;;;11.50;;
50126;SDS011;36024;47.974;16.398;2022-12-18T06:22:36;18.60;;;11.60;;
50126;SDS011;36024;47.974;16.398;2022-12-18T06:25:03;16.83;;;12.23;;
50126;SDS011;36024;47.974;16.398;2022-12-18T06:27:30;22.77;;;13.07;;
50126;SDS011;36024;47.974;16.398;2022-12-18T06:29:56;23.03;;;13.03;;
50126;SDS011;36024;47.974;16.398;2022-12-18T06:32:23;17.87;;;12.30;;
50126;SDS011;36024;47.974;16.398;2022-12-18T06:34:49;20.53;;;13.77;;
50126;SDS011;36024;47.974;16.398;2022-12-18T06:37:16;19.73;;;13.20;;
50126;SDS011;36024;47.974;16.398;2022-12-18T06:39:43;19.83;;;12.77;;
50126;SDS011;36024;47.974;16.398;2022-12-18T06:42:09;21.87;;;12.63;;
50126;SDS011;36024;47.974;16.398;2022-12-18T06:44:36;19.43;;;12.97;;
50126;SDS011;36024;47.974;16.398;2022-12-18T06:47:02;20.93;;;13.00;;
50126;SDS011;36024;47.974;16.398;2022-12-18T06:49:29;21.23;;;13.10;;
50126;SDS011;36024;47.974;16.398;2022-12-18T06:51:56;18.73;;;11.63;;
50126;SDS011;36024;47.974;16.398;2022-12-18T06:54:22;18.33;;;12.70;;
50126;SDS011;36024;47.974;16.398;2022-12-18T06:56:49;19.43;;;12.70;;
50126;SDS011;36024;47.974;16.398;2022-12-18T06:59:16;22.13;;;12.93;;
50126;SDS011;36024;47.974;16.398;2022-12-18T07:01:42;20.47;;;14.00;;
50126;SDS011;36024;47.974;16.398;2022-12-18T07:04:09;22.27;;;13.43;;
50126;SDS011;36024;47.974;16.398;2022-12-18T07:06:36;21.00;;;13.43;;
50126;SDS011;36024;47.974;16.398;2022-12-18T07:09:02;25.03;;;14.20;;
50126;SDS011;36024;47.974;16.398;2022-12-18T07:11:29;20.93;;;13.40;;
50126;SDS011;36024;47.974;16.398;2022-12-18T07:13:58;21.07;;;13.23;;
50126;SDS011;36024;47.974;16.398;2022-12-18T07:16:25;22.83;;;13.87;;
50126;SDS011;36024;47.974;16.398;2022-12-18T07:18:54;21.43;;;13.83;;
50126;SDS011;36024;47.974;16.398;2022-12-18T07:21:22;21.40;;;14.47;;
50126;SDS011;36024;47.974;16.398;2022-12-18T07:23:50;22.37;;;13.57;;
50126;SDS011;36024;47.974;16.398;2022-12-18T07:26:17;23.90;;;14.30;;
50126;SDS011;36024;47.974;16.398;2022-12-18T07:28:45;23.77;;;14.77;;
50126;SDS011;36024;47.974;16.398;2022-12-18T07:31:13;25.00;;;14.97;;
50126;SDS011;36024;47.974;16.398;2022-12-18T07:33:42;27.57;;;15.87;;
50126;SDS011;36024;47.974;16.398;2022-12-18T07:36:09;25.53;;;16.87;;
50126;SDS011;36024;47.974;16.398;2022-12-18T07:38:36;26.87;;;17.27;;
50126;SDS011;36024;47.974;16.398;2022-12-18T07:41:06;25.50;;;16.20;;
50126;SDS011;36024;47.974;16.398;2022-12-18T07:43:37;24.67;;;15.50;;
50126;SDS011;36024;47.974;16.398;2022-12-18T07:46:05;23.77;;;15.37;;
50126;SDS011;36024;47.974;16.398;2022-12-18T07:48:33;24.00;;;15.07;;
50126;SDS011;36024;47.974;16.398;2022-12-18T07:51:00;21.70;;;14.57;;
50126;SDS011;36024;47.974;16.398;2022-12-18T07:53:27;22.13;;;14.60;;
50126;SDS011;36024;47.974;16.398;2022-12-18T07:56:01;27.73;;;17.37;;
50126;SDS011;36024;47.974;16.398;2022-12-18T07:58:49;25.80;;;16.37;;
50126;SDS011;36024;47.974;16.398;2022-12-18T08:01:15;26.00;;;16.77;;
50126;SDS011;36024;47.974;16.398;2022-12-18T08:03:42;44.43;;;27.70;;
50126;SDS011;36024;47.974;16.398;2022-12-18T08:06:09;30.33;;;20.13;;
50126;SDS011;36024;47.974;16.398;2022-12-18T08:08:36;28.57;;;16.60;;
50126;SDS011;36024;47.974;16.398;2022-12-18T08:11:03;28.30;;;16.50;;
50126;SDS011;36024;47.974;16.398;2022-12-18T08:13:30;28.83;;;17.77;;
50126;SDS011;36024;47.974;16.398;2022-12-18T08:16:00;24.13;;;16.13;;
50126;SDS011;36024;47.974;16.398;2022-12-18T08:18:28;23.33;;;14.77;;
50126;SDS011;36024;47.974;16.398;2022-12-18T08:20:55;25.50;;;15.60;;
50126;SDS011;36024;47.974;16.398;2022-12-18T08:23:22;25.23;;;15.83;;
50126;SDS011;36024;47.974;16.398;2022-12-18T08:25:53;22.33;;;15.33;;
50126;SDS011;36024;47.974;16.398;2022-12-18T08:28:20;21.57;;;14.93;;
50126;SDS011;36024;47.974;16.398;2022-12-18T08:30:50;22.70;;;14.30;;
50126;SDS011;36024;47.974;16.398;2022-12-18T08:33:18;24.23;;;15.43;;
50126;SDS011;36024;47.974;16.398;2022-12-18T08:35:45;21.53;;;14.00;;
50126;SDS011;36024;47.974;16.398;2022-12-18T08:38:11;23.30;;;15.60;;
50126;SDS011;36024;47.974;16.398;2022-12-18T08:40:38;20.73;;;14.10;;
50126;SDS011;36024;47.974;16.398;2022-12-18T08:43:04;20.77;;;14.53;;
50126;SDS011;36024;47.974;16.398;2022-12-18T08:45:50;20.57;;;14.63;;
50126;SDS011;36024;47.974;16.398;2022-12-18T08:48:17;21.47;;;13.63;;
50126;SDS011;36024;47.974;16.398;2022-12-18T08:50:57;20.97;;;14.23;;
50126;SDS011;36024;47.974;16.398;2022-12-18T08:53:24;23.53;;;14.33;;
50126;SDS011;36024;47.974;16.398;2022-12-18T08:55:57;23.53;;;14.90;;
50126;SDS011;36024;47.974;16.398;2022-12-18T08:58:24;25.77;;;15.87;;
50126;SDS011;36024;47.974;16.398;2022-12-18T09:00:51;23.47;;;15.40;;
50126;SDS011;36024;47.974;16.398;2022-12-18T09:03:18;23.13;;;14.93;;
50126;SDS011;36024;47.974;16.398;2022-12-18T09:05:47;22.33;;;15.37;;
50126;SDS011;36024;47.974;16.398;2022-12-18T09:08:14;24.83;;;15.47;;
50126;SDS011;36024;47.974;16.398;2022-12-18T09:10:41;22.43;;;15.63;;
50126;SDS011;36024;47.974;16.398;2022-12-18T09:13:09;25.83;;;16.53;;
50126;SDS011;36024;47.974;16.398;2022-12-18T09:15:43;25.63;;;16.73;;
50126;SDS011;36024;47.974;16.398;2022-12-18T09:18:11;24.70;;;17.37;;
50126;SDS011;36024;47.974;16.398;2022-12-18T09:20:39;26.60;;;17.73;;
50126;SDS011;36024;47.974;16.398;2022-12-18T09:23:06;23.20;;;17.17;;
50126;SDS011;36024;47.974;16.398;2022-12-18T09:25:33;28.70;;;17.17;;
50126;SDS011;36024;47.974;16.398;2022-12-18T09:28:03;25.70;;;17.03;;
50126;SDS011;36024;47.974;16.398;2022-12-18T09:30:30;25.53;;;16.57;;
50126;SDS011;36024;47.974;16.398;2022-12-18T09:33:00;25.33;;;16.90;;
50126;SDS011;36024;47.974;16.398;2022-12-18T09:35:27;24.87;;;16.70;;
50126;SDS011;36024;47.974;16.398;2022-12-18T09:37:54;26.07;;;19.13;;
50126;SDS011;36024;47.974;16.398;2022-12-18T09:40:22;26.67;;;17.97;;
50126;SDS011;36024;47.974;16.398;2022-12-18T09:42:52;25.47;;;16.63;;
50126;SDS011;36024;47.974;16.398;2022-12-18T09:45:21;22.63;;;16.60;;
50126;SDS011;36024;47.974;16.398;2022-12-18T09:47:48;24.87;;;16.50;;
50126;SDS011;36024;47.974;16.398;2022-12-18T09:52:51;25.23;;;16.43;;
50126;SDS011;36024;47.974;16.398;2022-12-18T09:58:06;28.70;;;16.90;;
50126;SDS011;36024;47.974;16.398;2022-12-18T10:00:39;28.40;;;17.77;;
50126;SDS011;36024;47.974;16.398;2022-12-18T10:03:11;32.17;;;19.30;;
50126;SDS011;36024;47.974;16.398;2022-12-18T10:10:39;30.30;;;18.33;;
50126;SDS011;36024;47.974;16.398;2022-12-18T10:21:32;28.43;;;17.20;;
50126;SDS011;36024;47.974;16.398;2022-12-18T10:24:17;28.27;;;16.07;;
50126;SDS011;36024;47.974;16.398;2022-12-18T10:26:52;28.60;;;17.90;;
50126;SDS011;36024;47.974;16.398;2022-12-18T10:29:19;23.43;;;16.13;;
50126;SDS011;36024;47.974;16.398;2022-12-18T10:31:46;26.40;;;16.63;;
50126;SDS011;36024;47.974;16.398;2022-12-18T10:34:12;25.97;;;17.10;;
50126;SDS011;36024;47.974;16.398;2022-12-18T10:36:40;27.87;;;18.37;;
50126;SDS011;36024;47.974;16.398;2022-12-18T10:39:18;25.10;;;16.77;;
50126;SDS011;36024;47.974;16.398;2022-12-18T10:41:46;26.97;;;17.00;;
50126;SDS011;36024;47.974;16.398;2022-12-18T10:44:19;28.87;;;17.20;;
50126;SDS011;36024;47.974;16.398;2022-12-18T10:46:47;26.47;;;17.10;;
50126;SDS011;36024;47.974;16.398;2022-12-18T10:49:23;28.73;;;18.50;;
50126;SDS011;36024;47.974;16.398;2022-12-18T10:52:03;25.17;;;16.57;;
50126;SDS011;36024;47.974;16.398;2022-12-18T10:54:34;34.40;;;19.20;;
50126;SDS011;36024;47.974;16.398;2022-12-18T10:57:14;40.47;;;21.37;;
50126;SDS011;36024;47.974;16.398;2022-12-18T10:59:52;41.80;;;20.93;;
50126;SDS011;36024;47.974;16.398;2022-12-18T11:02:27;35.53;;;20.00;;
50126;SDS011;36024;47.974;16.398;2022-12-18T11:04:56;41.30;;;21.17;;
50126;SDS011;36024;47.974;16.398;2022-12-18T11:07:23;35.97;;;20.97;;
50126;SDS011;36024;47.974;16.398;2022-12-18T11:09:59;32.07;;;19.73;;
50126;SDS011;36024;47.974;16.398;2022-12-18T11:12:29;29.00;;;18.57;;
50126;SDS011;36024;47.974;16.398;2022-12-18T11:14:58;27.47;;;18.30;;
50126;SDS011;36024;47.974;16.398;2022-12-18T11:17:33;31.77;;;19.97;;
50126;SDS011;36024;47.974;16.398;2022-12-18T11:22:57;29.23;;;17.80;;
50126;SDS011;36024;47.974;16.398;2022-12-18T11:25:36;28.57;;;18.13;;
50126;SDS011;36024;47.974;16.398;2022-12-18T11:31:08;30.63;;;18.47;;
50126;SDS011;36024;47.974;16.398;2022-12-18T11:33:39;33.87;;;20.17;;
50126;SDS011;36024;47.974;16.398;2022-12-18T11:36:29;31.00;;;19.03;;
50126;SDS011;36024;47.974;16.398;2022-12-18T11:39:00;30.63;;;19.17;;
50126;SDS011;36024;47.974;16.398;2022-12-18T11:41:41;30.90;;;19.13;;
50126;SDS011;36024;47.974;16.398;2022-12-18T11:44:36;28.57;;;19.07;;
50126;SDS011;36024;47.974;16.398;2022-12-18T11:47:09;30.63;;;18.97;;
50126;SDS011;36024;47.974;16.398;2022-12-18T11:49:42;28.40;;;17.80;;
50126;SDS011;36024;47.974;16.398;2022-12-18T11:52:22;33.77;;;21.37;;
50126;SDS011;36024;47.974;16.398;2022-12-18T11:54:55;30.43;;;18.90;;
50126;SDS011;36024;47.974;16.398;2022-12-18T12:00:29;28.17;;;18.13;;
50126;SDS011;36024;47.974;16.398;2022-12-18T12:05:49;30.30;;;19.53;;
50126;SDS011;36024;47.974;16.398;2022-12-18T12:16:22;29.23;;;19.07;;
50126;SDS011;36024;47.974;16.398;2022-12-18T12:19:02;31.83;;;19.43;;
50126;SDS011;36024;47.974;16.398;2022-12-18T12:24:18;33.37;;;20.90;;
50126;SDS011;36024;47.974;16.398;2022-12-18T12:40:26;31.97;;;20.13;;
50126;SDS011;36024;47.974;16.398;2022-12-18T12:43:35;29.83;;;19.13;;
50126;SDS011;36024;47.974;16.398;2022-12-18T12:46:13;30.47;;;20.07;;
50126;SDS011;36024;47.974;16.398;2022-12-18T12:51:20;31.73;;;20.37;;
50126;SDS011;36024;47.974;16.398;2022-12-18T12:53:48;33.97;;;21.13;;
50126;SDS011;36024;47.974;16.398;2022-12-18T12:56:17;32.67;;;20.67;;
50126;SDS011;36024;47.974;16.398;2022-12-18T12:58:55;32.93;;;20.77;;
50126;SDS011;36024;47.974;16.398;2022-12-18T13:01:52;30.40;;;20.30;;
50126;SDS011;36024;47.974;16.398;2022-12-18T13:07:00;31.43;;;20.60;;
50126;SDS011;36024;47.974;16.398;2022-12-18T13:09:33;32.27;;;20.50;;
50126;SDS011;36024;47.974;16.398;2022-12-18T13:12:04;30.63;;;19.70;;
50126;SDS011;36024;47.974;16.398;2022-12-18T13:20:35;33.70;;;21.27;;
50126;SDS011;36024;47.974;16.398;2022-12-18T13:23:19;30.70;;;20.70;;
50126;SDS011;36024;47.974;16.398;2022-12-18T13:28:55;32.97;;;20.73;;
50126;SDS011;36024;47.974;16.398;2022-12-18T13:34:21;31.43;;;20.50;;
50126;SDS011;36024;47.974;16.398;2022-12-18T13:36:54;34.03;;;21.30;;
50126;SDS011;36024;47.974;16.398;2022-12-18T13:39:23;36.43;;;21.70;;
50126;SDS011;36024;47.974;16.398;2022-12-18T13:44:36;35.60;;;23.00;;
50126;SDS011;36024;47.974;16.398;2022-12-18T13:49:51;32.63;;;20.97;;
50126;SDS011;36024;47.974;16.398;2022-12-18T13:52:21;33.07;;;20.60;;
50126;SDS011;36024;47.974;16.398;2022-12-18T13:54:59;33.83;;;21.50;;
50126;SDS011;36024;47.974;16.398;2022-12-18T14:02:45;32.93;;;20.37;;
50126;SDS011;36024;47.974;16.398;2022-12-18T14:05:26;33.00;;;20.93;;
50126;SDS011;36024;47.974;16.398;2022-12-18T14:08:10;36.37;;;21.47;;
50126;SDS011;36024;47.974;16.398;2022-12-18T14:10:43;32.77;;;20.50;;
50126;SDS011;36024;47.974;16.398;2022-12-18T14:13:23;34.40;;;20.63;;
50126;SDS011;36024;47.974;16.398;2022-12-18T14:15:55;38.37;;;23.43;;
50126;SDS011;36024;47.974;16.398;2022-12-18T14:18:24;35.03;;;21.90;;
50126;SDS011;36024;47.974;16.398;2022-12-18T14:21:02;36.50;;;21.23;;
50126;SDS011;36024;47.974;16.398;2022-12-18T14:23:31;33.97;;;21.07;;
50126;SDS011;36024;47.974;16.398;2022-12-18T14:26:27;35.37;;;21.90;;
50126;SDS011;36024;47.974;16.398;2022-12-18T14:28:57;36.77;;;21.53;;
50126;SDS011;36024;47.974;16.398;2022-12-18T14:31:25;38.90;;;22.20;;
50126;SDS011;36024;47.974;16.398;2022-12-18T14:33:54;33.93;;;21.83;;
50126;SDS011;36024;47.974;16.398;2022-12-18T14:36:23;38.70;;;23.67;;
50126;SDS011;36024;47.974;16.398;2022-12-18T14:38:51;38.10;;;21.63;;
50126;SDS011;36024;47.974;16.398;2022-12-18T14:41:28;39.33;;;24.07;;
50126;SDS011;36024;47.974;16.398;2022-12-18T14:43:54;34.93;;;21.80;;
50126;SDS011;36024;47.974;16.398;2022-12-18T14:52:03;25.27;;;17.60;;
50126;SDS011;36024;47.974;16.398;2022-12-18T14:54:33;31.83;;;21.57;;
50126;SDS011;36024;47.974;16.398;2022-12-18T14:57:02;26.90;;;17.77;;
50126;SDS011;36024;47.974;16.398;2022-12-18T14:59:49;25.03;;;17.13;;
50126;SDS011;36024;47.974;16.398;2022-12-18T15:02:21;26.70;;;17.80;;
50126;SDS011;36024;47.974;16.398;2022-12-18T15:04:59;26.63;;;16.63;;
50126;SDS011;36024;47.974;16.398;2022-12-18T15:07:45;23.90;;;15.57;;
50126;SDS011;36024;47.974;16.398;2022-12-18T15:10:14;23.87;;;15.60;;
50126;SDS011;36024;47.974;16.398;2022-12-18T15:13:28;26.20;;;16.47;;
50126;SDS011;36024;47.974;16.398;2022-12-18T15:18:04;27.63;;;18.07;;
50126;SDS011;36024;47.974;16.398;2022-12-18T15:20:53;28.67;;;17.43;;
50126;SDS011;36024;47.974;16.398;2022-12-18T15:23:25;27.17;;;17.83;;
50126;SDS011;36024;47.974;16.398;2022-12-18T15:25:56;28.53;;;17.37;;
50126;SDS011;36024;47.974;16.398;2022-12-18T15:28:31;24.57;;;16.10;;
50126;SDS011;36024;47.974;16.398;2022-12-18T15:31:04;25.10;;;16.60;;
50126;SDS011;36024;47.974;16.398;2022-12-18T15:36:20;23.30;;;15.53;;
50126;SDS011;36024;47.974;16.398;2022-12-18T15:38:52;29.57;;;19.00;;
50126;SDS011;36024;47.974;16.398;2022-12-18T15:41:30;30.30;;;18.70;;
50126;SDS011;36024;47.974;16.398;2022-12-18T15:44:01;31.67;;;20.33;;
50126;SDS011;36024;47.974;16.398;2022-12-18T15:46:29;32.23;;;19.60;;
50126;SDS011;36024;47.974;16.398;2022-12-18T15:48:57;29.13;;;19.83;;
50126;SDS011;36024;47.974;16.398;2022-12-18T15:51:28;33.00;;;19.70;;
50126;SDS011;36024;47.974;16.398;2022-12-18T15:53:58;29.67;;;19.77;;
50126;SDS011;36024;47.974;16.398;2022-12-18T15:56:26;32.63;;;19.83;;
50126;SDS011;36024;47.974;16.398;2022-12-18T15:59:12;33.00;;;20.67;;
50126;SDS011;36024;47.974;16.398;2022-12-18T16:01:41;33.67;;;20.70;;
50126;SDS011;36024;47.974;16.398;2022-12-18T16:04:12;31.43;;;19.77;;
50126;SDS011;36024;47.974;16.398;2022-12-18T16:06:39;34.17;;;21.43;;
50126;SDS011;36024;47.974;16.398;2022-12-18T16:09:26;34.20;;;20.77;;
50126;SDS011;36024;47.974;16.398;2022-12-18T16:11:53;34.33;;;21.50;;
50126;SDS011;36024;47.974;16.398;2022-12-18T16:14:21;36.53;;;21.13;;
50126;SDS011;36024;47.974;16.398;2022-12-18T16:16:51;35.17;;;20.77;;
50126;SDS011;36024;47.974;16.398;2022-12-18T16:19:19;35.33;;;21.17;;
50126;SDS011;36024;47.974;16.398;2022-12-18T16:21:47;33.00;;;20.80;;
50126;SDS011;36024;47.974;16.398;2022-12-18T16:24:16;34.43;;;21.87;;
50126;SDS011;36024;47.974;16.398;2022-12-18T16:26:50;33.77;;;20.93;;